sensor_id;sensor_type;location;lat;lon;timestamp;pressure;altitude;pressure_sealevel;temperature;humidity
44825;BME280;30542;47.928;2.138;2022-10-31T00:01:52;100776.25;;;20.25;60.77
44825;BME280;30542;47.928;2.138;2022-10-31T00:06:52;100775.44;;;20.24;60.76
44825;BME280;30542;47.928;2.138;2022-10-31T00:11:52;100742.44;;;20.14;61.03
44825;BME280;30542;47.928;2.138;2022-10-31T00:16:53;100753.25;;;20.24;60.83
44825;BME280;30542;47.928;2.138;2022-10-31T00:21:53;100759.41;;;20.24;60.78
44825;BME280;30542;47.928;2.138;2022-10-31T00:26:54;100747.78;;;20.14;60.64
44825;BME280;30542;47.928;2.138;2022-10-31T00:31:54;100751.06;;;20.21;60.86
44825;BME280;30542;47.928;2.138;2022-10-31T00:36:54;100752.13;;;20.20;60.77
44825;BME280;30542;47.928;2.138;2022-10-31T00:41:55;100741.38;;;20.15;60.86
44825;BME280;30542;47.928;2.138;2022-10-31T00:46:55;100745.16;;;20.19;60.88
44825;BME280;30542;47.928;2.138;2022-10-31T00:51:55;100747.03;;;20.18;60.89
44825;BME280;30542;47.928;2.138;2022-10-31T00:56:56;100749.69;;;20.18;60.82
44825;BME280;30542;47.928;2.138;2022-10-31T01:01:57;100765.75;;;20.18;60.74
44825;BME280;30542;47.928;2.138;2022-10-31T01:06:57;100762.53;;;20.16;60.75
44825;BME280;30542;47.928;2.138;2022-10-31T01:11:58;100749.97;;;20.17;60.79
44825;BME280;30542;47.928;2.138;2022-10-31T01:16:58;100748.38;;;20.16;60.96
44825;BME280;30542;47.928;2.138;2022-10-31T01:21:58;100722.59;;;20.04;60.86
44825;BME280;30542;47.928;2.138;2022-10-31T01:26:59;100726.97;;;20.16;60.76
44825;BME280;30542;47.928;2.138;2022-10-31T01:31:59;100731.75;;;20.14;60.94
44825;BME280;30542;47.928;2.138;2022-10-31T01:36:59;100719.44;;;20.13;60.87
44825;BME280;30542;47.928;2.138;2022-10-31T01:42:00;100719.19;;;20.14;60.86
44825;BME280;30542;47.928;2.138;2022-10-31T01:47:12;100711.41;;;20.13;60.98
44825;BME280;30542;47.928;2.138;2022-10-31T01:52:20;100700.16;;;20.10;61.00
44825;BME280;30542;47.928;2.138;2022-10-31T01:57:22;100698.06;;;20.13;60.85
44825;BME280;30542;47.928;2.138;2022-10-31T02:02:22;100704.19;;;20.13;60.91
44825;BME280;30542;47.928;2.138;2022-10-31T02:07:28;100692.09;;;20.05;60.88
44825;BME280;30542;47.928;2.138;2022-10-31T02:12:32;100664.75;;;19.98;60.95
44825;BME280;30542;47.928;2.138;2022-10-31T02:17:33;100688.94;;;20.08;60.97
44825;BME280;30542;47.928;2.138;2022-10-31T02:33:41;100669.59;;;20.01;61.04
44825;BME280;30542;47.928;2.138;2022-10-31T02:39:18;100671.81;;;20.09;61.05
44825;BME280;30542;47.928;2.138;2022-10-31T02:44:48;100674.19;;;20.06;61.13
44825;BME280;30542;47.928;2.138;2022-10-31T02:50:00;100661.88;;;20.05;61.14
44825;BME280;30542;47.928;2.138;2022-10-31T03:00:24;100640.41;;;19.95;61.16
44825;BME280;30542;47.928;2.138;2022-10-31T03:05:45;100634.03;;;20.01;61.03
44825;BME280;30542;47.928;2.138;2022-10-31T03:11:01;100618.03;;;20.06;61.19
44825;BME280;30542;47.928;2.138;2022-10-31T03:16:14;100610.50;;;20.03;61.23
44825;BME280;30542;47.928;2.138;2022-10-31T03:26:23;100580.84;;;19.99;61.09
44825;BME280;30542;47.928;2.138;2022-10-31T03:31:29;100569.88;;;20.01;61.01
44825;BME280;30542;47.928;2.138;2022-10-31T03:36:32;100566.41;;;20.00;60.87
44825;BME280;30542;47.928;2.138;2022-10-31T03:41:38;100559.44;;;19.99;61.19
44825;BME280;30542;47.928;2.138;2022-10-31T03:46:42;100527.59;;;19.93;61.10
44825;BME280;30542;47.928;2.138;2022-10-31T03:52:02;100532.16;;;19.97;61.15
44825;BME280;30542;47.928;2.138;2022-10-31T04:02:33;100563.44;;;19.97;60.93
44825;BME280;30542;47.928;2.138;2022-10-31T04:07:39;100565.81;;;19.93;61.16
44825;BME280;30542;47.928;2.138;2022-10-31T04:12:43;100553.22;;;19.89;61.35
44825;BME280;30542;47.928;2.138;2022-10-31T04:17:48;100561.25;;;19.94;61.01
44825;BME280;30542;47.928;2.138;2022-10-31T04:22:50;100558.59;;;19.94;61.09
44825;BME280;30542;47.928;2.138;2022-10-31T04:27:50;100547.38;;;19.92;61.33
44825;BME280;30542;47.928;2.138;2022-10-31T04:32:51;100537.19;;;19.94;61.36
44825;BME280;30542;47.928;2.138;2022-10-31T04:37:51;100543.91;;;19.96;61.20
44825;BME280;30542;47.928;2.138;2022-10-31T04:42:51;100542.81;;;19.92;61.62
44825;BME280;30542;47.928;2.138;2022-10-31T04:47:52;100534.53;;;19.94;61.11
44825;BME280;30542;47.928;2.138;2022-10-31T04:52:52;100530.53;;;19.91;61.30
44825;BME280;30542;47.928;2.138;2022-10-31T04:57:52;100534.22;;;19.90;61.19
44825;BME280;30542;47.928;2.138;2022-10-31T05:02:54;100524.09;;;19.87;61.42
44825;BME280;30542;47.928;2.138;2022-10-31T05:07:55;100520.88;;;19.90;61.53
44825;BME280;30542;47.928;2.138;2022-10-31T05:12:58;100496.81;;;19.90;61.09
44825;BME280;30542;47.928;2.138;2022-10-31T05:18:00;100484.47;;;19.79;61.43
44825;BME280;30542;47.928;2.138;2022-10-31T05:23:00;100489.88;;;19.89;61.24
44825;BME280;30542;47.928;2.138;2022-10-31T05:28:01;100483.44;;;19.85;61.32
44825;BME280;30542;47.928;2.138;2022-10-31T05:33:01;100471.94;;;19.84;61.45
44825;BME280;30542;47.928;2.138;2022-10-31T05:38:02;100471.13;;;19.84;61.29
44825;BME280;30542;47.928;2.138;2022-10-31T05:43:02;100461.53;;;19.88;61.36
44825;BME280;30542;47.928;2.138;2022-10-31T05:48:03;100447.59;;;19.86;61.02
44825;BME280;30542;47.928;2.138;2022-10-31T05:53:04;100434.78;;;19.83;61.45
44825;BME280;30542;47.928;2.138;2022-10-31T05:58:05;100417.41;;;19.85;61.21
44825;BME280;30542;47.928;2.138;2022-10-31T06:03:07;100416.09;;;19.88;61.29
44825;BME280;30542;47.928;2.138;2022-10-31T06:08:08;100420.38;;;19.89;61.26
44825;BME280;30542;47.928;2.138;2022-10-31T06:13:08;100425.19;;;19.87;61.31
44825;BME280;30542;47.928;2.138;2022-10-31T06:18:09;100424.91;;;19.89;61.06
44825;BME280;30542;47.928;2.138;2022-10-31T06:23:09;100421.94;;;19.80;60.79
44825;BME280;30542;47.928;2.138;2022-10-31T06:28:09;100414.19;;;19.78;60.19
44825;BME280;30542;47.928;2.138;2022-10-31T06:33:10;100420.84;;;19.76;59.99
44825;BME280;30542;47.928;2.138;2022-10-31T06:38:10;100414.44;;;19.82;60.70
44825;BME280;30542;47.928;2.138;2022-10-31T06:43:10;100423.03;;;19.84;60.68
44825;BME280;30542;47.928;2.138;2022-10-31T06:48:11;100426.22;;;19.86;60.54
44825;BME280;30542;47.928;2.138;2022-10-31T06:53:11;100421.63;;;19.76;60.64
44825;BME280;30542;47.928;2.138;2022-10-31T06:58:14;100417.38;;;19.75;60.38
44825;BME280;30542;47.928;2.138;2022-10-31T07:03:15;100397.06;;;19.74;61.03
44825;BME280;30542;47.928;2.138;2022-10-31T07:08:15;100394.13;;;19.76;61.02
44825;BME280;30542;47.928;2.138;2022-10-31T07:13:16;100401.34;;;19.75;61.20
44825;BME280;30542;47.928;2.138;2022-10-31T07:18:16;100397.06;;;19.74;60.39
44825;BME280;30542;47.928;2.138;2022-10-31T07:23:16;100381.72;;;19.59;58.94
44825;BME280;30542;47.928;2.138;2022-10-31T07:28:17;100388.75;;;19.71;58.78
44825;BME280;30542;47.928;2.138;2022-10-31T07:33:17;100373.22;;;19.63;59.54
44825;BME280;30542;47.928;2.138;2022-10-31T07:38:17;100394.13;;;19.76;59.48
44825;BME280;30542;47.928;2.138;2022-10-31T07:43:18;100387.16;;;19.75;60.80
44825;BME280;30542;47.928;2.138;2022-10-31T07:48:19;100368.69;;;19.73;60.61
44825;BME280;30542;47.928;2.138;2022-10-31T07:53:19;100367.38;;;19.71;59.59
44825;BME280;30542;47.928;2.138;2022-10-31T07:58:20;100369.00;;;19.77;59.84
44825;BME280;30542;47.928;2.138;2022-10-31T08:03:20;100355.38;;;19.78;59.90
44825;BME280;30542;47.928;2.138;2022-10-31T08:08:20;100353.47;;;19.74;60.35
44825;BME280;30542;47.928;2.138;2022-10-31T08:13:21;100333.66;;;19.65;60.65
44825;BME280;30542;47.928;2.138;2022-10-31T08:18:22;100359.09;;;19.77;60.62
44825;BME280;30542;47.928;2.138;2022-10-31T08:23:23;100353.78;;;19.82;60.25
44825;BME280;30542;47.928;2.138;2022-10-31T08:28:24;100364.78;;;19.96;60.33
44825;BME280;30542;47.928;2.138;2022-10-31T08:33:24;100349.31;;;20.03;60.14
44825;BME280;30542;47.928;2.138;2022-10-31T08:38:25;100364.31;;;20.15;60.17
44825;BME280;30542;47.928;2.138;2022-10-31T08:43:25;100367.81;;;20.25;59.95
44825;BME280;30542;47.928;2.138;2022-10-31T08:48:26;100348.03;;;20.31;59.54
44825;BME280;30542;47.928;2.138;2022-10-31T08:53:26;100321.56;;;20.30;59.50
44825;BME280;30542;47.928;2.138;2022-10-31T08:58:27;100305.78;;;20.28;59.35
44825;BME280;30542;47.928;2.138;2022-10-31T09:03:29;100313.28;;;20.42;58.98
44825;BME280;30542;47.928;2.138;2022-10-31T09:08:31;100293.47;;;20.43;58.82
44825;BME280;30542;47.928;2.138;2022-10-31T09:13:32;100298.59;;;20.54;58.26
44825;BME280;30542;47.928;2.138;2022-10-31T09:18:33;100286.56;;;20.57;58.65
44825;BME280;30542;47.928;2.138;2022-10-31T09:23:33;100282.53;;;20.65;58.61
44825;BME280;30542;47.928;2.138;2022-10-31T09:28:34;100278.25;;;20.69;58.62
44825;BME280;30542;47.928;2.138;2022-10-31T09:33:35;100271.56;;;20.71;58.42
44825;BME280;30542;47.928;2.138;2022-10-31T09:38:35;100271.28;;;20.78;58.42
44825;BME280;30542;47.928;2.138;2022-10-31T09:44:00;100276.63;;;20.83;58.37
44825;BME280;30542;47.928;2.138;2022-10-31T09:54:34;100260.81;;;20.81;58.38
44825;BME280;30542;47.928;2.138;2022-10-31T09:59:39;100260.81;;;20.92;58.09
44825;BME280;30542;47.928;2.138;2022-10-31T10:05:02;100265.38;;;20.86;58.38
44825;BME280;30542;47.928;2.138;2022-10-31T10:10:15;100253.63;;;20.82;58.66
44825;BME280;30542;47.928;2.138;2022-10-31T10:25:39;100244.81;;;20.66;58.85
44825;BME280;30542;47.928;2.138;2022-10-31T10:40:51;100235.97;;;20.71;58.99
44825;BME280;30542;47.928;2.138;2022-10-31T10:51:22;100226.59;;;20.68;59.37
44825;BME280;30542;47.928;2.138;2022-10-31T10:56:40;100212.41;;;20.68;59.51
44825;BME280;30542;47.928;2.138;2022-10-31T11:01:43;100203.31;;;20.69;59.52
44825;BME280;30542;47.928;2.138;2022-10-31T11:06:44;100199.00;;;20.73;59.56
44825;BME280;30542;47.928;2.138;2022-10-31T11:11:44;100191.78;;;20.73;59.40
44825;BME280;30542;47.928;2.138;2022-10-31T11:16:49;100181.09;;;20.68;59.55
44825;BME280;30542;47.928;2.138;2022-10-31T11:21:50;100148.22;;;20.57;59.52
44825;BME280;30542;47.928;2.138;2022-10-31T11:26:51;100162.66;;;20.62;59.75
44825;BME280;30542;47.928;2.138;2022-10-31T11:31:53;100169.31;;;20.64;59.73
44825;BME280;30542;47.928;2.138;2022-10-31T11:37:44;100162.66;;;20.67;59.68
44825;BME280;30542;47.928;2.138;2022-10-31T11:42:24;100137.75;;;20.71;59.55
44825;BME280;30542;47.928;2.138;2022-10-31T11:47:27;100131.59;;;20.71;59.75
44825;BME280;30542;47.928;2.138;2022-10-31T11:52:30;100111.28;;;20.59;59.94
44825;BME280;30542;47.928;2.138;2022-10-31T11:57:46;100119.28;;;20.65;60.19
44825;BME280;30542;47.928;2.138;2022-10-31T12:02:47;100110.75;;;20.63;60.26
44825;BME280;30542;47.928;2.138;2022-10-31T12:07:48;100111.81;;;20.62;60.33
44825;BME280;30542;47.928;2.138;2022-10-31T12:13:04;100107.00;;;20.58;60.33
44825;BME280;30542;47.928;2.138;2022-10-31T12:18:33;100088.56;;;20.57;60.40
44825;BME280;30542;47.928;2.138;2022-10-31T13:00:22;100002.25;;;20.80;59.07
44825;BME280;30542;47.928;2.138;2022-10-31T13:05:36;99983.56;;;20.75;58.41
44825;BME280;30542;47.928;2.138;2022-10-31T13:10:47;99981.38;;;20.77;58.34
44825;BME280;30542;47.928;2.138;2022-10-31T13:15:51;99958.63;;;20.80;57.50
44825;BME280;30542;47.928;2.138;2022-10-31T13:20:54;99953.81;;;20.82;56.38
44825;BME280;30542;47.928;2.138;2022-10-31T13:26:01;99943.16;;;20.72;56.19
44825;BME280;30542;47.928;2.138;2022-10-31T13:31:03;99954.88;;;20.81;55.61
44825;BME280;30542;47.928;2.138;2022-10-31T13:36:33;99950.59;;;20.80;55.81
44825;BME280;30542;47.928;2.138;2022-10-31T13:41:52;99935.38;;;20.75;55.88
44825;BME280;30542;47.928;2.138;2022-10-31T13:46:56;99926.25;;;20.76;56.01
44825;BME280;30542;47.928;2.138;2022-10-31T13:57:34;99918.47;;;20.80;56.41
44825;BME280;30542;47.928;2.138;2022-10-31T14:02:36;99909.94;;;20.78;56.65
44825;BME280;30542;47.928;2.138;2022-10-31T14:07:42;99898.94;;;20.79;56.60
44825;BME280;30542;47.928;2.138;2022-10-31T14:12:45;99895.47;;;20.79;56.71
44825;BME280;30542;47.928;2.138;2022-10-31T14:17:50;99901.38;;;20.76;56.92
44825;BME280;30542;47.928;2.138;2022-10-31T14:22:51;99893.09;;;20.72;57.16
44825;BME280;30542;47.928;2.138;2022-10-31T14:27:52;99882.94;;;20.69;57.32
44825;BME280;30542;47.928;2.138;2022-10-31T14:33:01;99871.50;;;20.64;57.50
44825;BME280;30542;47.928;2.138;2022-10-31T14:49:12;99853.84;;;20.63;57.91
44825;BME280;30542;47.928;2.138;2022-10-31T14:54:27;99851.72;;;20.59;58.05
44825;BME280;30542;47.928;2.138;2022-10-31T14:59:31;99839.44;;;20.58;58.19
44825;BME280;30542;47.928;2.138;2022-10-31T15:04:35;99828.72;;;20.58;58.02
44825;BME280;30542;47.928;2.138;2022-10-31T15:09:36;99822.28;;;20.59;58.26
44825;BME280;30542;47.928;2.138;2022-10-31T15:14:40;99817.50;;;20.56;58.28
44825;BME280;30542;47.928;2.138;2022-10-31T15:19:41;99807.06;;;20.55;58.40
44825;BME280;30542;47.928;2.138;2022-10-31T15:24:43;99811.94;;;20.53;58.45
44825;BME280;30542;47.928;2.138;2022-10-31T15:29:51;99806.84;;;20.51;58.56
44825;BME280;30542;47.928;2.138;2022-10-31T15:34:53;99811.38;;;20.51;58.66
44825;BME280;30542;47.928;2.138;2022-10-31T15:39:54;99807.38;;;20.48;58.81
44825;BME280;30542;47.928;2.138;2022-10-31T15:45:01;99807.38;;;20.48;58.74
44825;BME280;30542;47.928;2.138;2022-10-31T15:50:03;99803.09;;;20.47;58.75
44825;BME280;30542;47.928;2.138;2022-10-31T16:05:25;99839.75;;;20.47;58.72
44825;BME280;30542;47.928;2.138;2022-10-31T16:10:34;99835.28;;;20.37;58.85
44825;BME280;30542;47.928;2.138;2022-10-31T16:15:37;99865.69;;;20.46;59.09
44825;BME280;30542;47.928;2.138;2022-10-31T16:20:38;99878.53;;;20.44;59.10
44825;BME280;30542;47.928;2.138;2022-10-31T16:25:38;99894.88;;;20.43;59.33
44825;BME280;30542;47.928;2.138;2022-10-31T16:30:44;99883.38;;;20.42;59.17
44825;BME280;30542;47.928;2.138;2022-10-31T16:35:45;99895.69;;;20.43;59.16
44825;BME280;30542;47.928;2.138;2022-10-31T16:40:45;99894.59;;;20.44;59.25
44825;BME280;30542;47.928;2.138;2022-10-31T16:45:48;99896.75;;;20.42;59.22
44825;BME280;30542;47.928;2.138;2022-10-31T16:50:49;99895.16;;;20.41;59.47
44825;BME280;30542;47.928;2.138;2022-10-31T16:55:57;99905.59;;;20.43;59.38
44825;BME280;30542;47.928;2.138;2022-10-31T17:01:04;99918.69;;;20.39;59.61
44825;BME280;30542;47.928;2.138;2022-10-31T17:06:05;99925.66;;;20.40;59.61
44825;BME280;30542;47.928;2.138;2022-10-31T17:11:12;99932.06;;;20.39;59.40
44825;BME280;30542;47.928;2.138;2022-10-31T17:16:13;99929.69;;;20.38;59.61
44825;BME280;30542;47.928;2.138;2022-10-31T17:21:21;99939.84;;;20.41;59.64
44825;BME280;30542;47.928;2.138;2022-10-31T17:26:22;99932.63;;;20.41;59.89
44825;BME280;30542;47.928;2.138;2022-10-31T17:31:28;99919.25;;;20.41;59.86
44825;BME280;30542;47.928;2.138;2022-10-31T17:36:28;99917.31;;;20.47;61.35
44825;BME280;30542;47.928;2.138;2022-10-31T17:41:29;99920.00;;;20.47;61.65
44825;BME280;30542;47.928;2.138;2022-10-31T17:46:29;99906.38;;;20.48;61.97
44825;BME280;30542;47.928;2.138;2022-10-31T17:51:31;99883.13;;;20.39;62.25
44825;BME280;30542;47.928;2.138;2022-10-31T17:56:32;99902.63;;;20.49;62.11
44825;BME280;30542;47.928;2.138;2022-10-31T18:01:32;99897.50;;;20.48;62.59
44825;BME280;30542;47.928;2.138;2022-10-31T18:06:32;99885.22;;;20.52;62.84
44825;BME280;30542;47.928;2.138;2022-10-31T18:11:38;99872.38;;;20.54;63.20
44825;BME280;30542;47.928;2.138;2022-10-31T18:16:38;99851.75;;;20.54;63.34
44825;BME280;30542;47.928;2.138;2022-10-31T18:21:39;99858.72;;;20.55;63.58
44825;BME280;30542;47.928;2.138;2022-10-31T18:26:39;99854.41;;;20.59;63.89
44825;BME280;30542;47.928;2.138;2022-10-31T18:31:40;99846.38;;;20.59;63.95
44825;BME280;30542;47.928;2.138;2022-10-31T18:36:40;99843.41;;;20.61;63.68
44825;BME280;30542;47.928;2.138;2022-10-31T18:41:41;99841.03;;;20.59;63.83
44825;BME280;30542;47.928;2.138;2022-10-31T18:46:41;99841.56;;;20.56;64.25
44825;BME280;30542;47.928;2.138;2022-10-31T18:51:42;99842.09;;;20.58;64.29
44825;BME280;30542;47.928;2.138;2022-10-31T18:56:45;99832.00;;;20.50;64.36
44825;BME280;30542;47.928;2.138;2022-10-31T19:01:45;99835.72;;;20.54;63.90
44825;BME280;30542;47.928;2.138;2022-10-31T19:06:46;99838.38;;;20.54;63.82
44825;BME280;30542;47.928;2.138;2022-10-31T19:11:46;99828.78;;;20.53;63.64
44825;BME280;30542;47.928;2.138;2022-10-31T19:16:46;99833.03;;;20.54;63.88
44825;BME280;30542;47.928;2.138;2022-10-31T19:21:47;99830.66;;;20.53;63.86
44825;BME280;30542;47.928;2.138;2022-10-31T19:26:47;99825.84;;;20.50;63.71
44825;BME280;30542;47.928;2.138;2022-10-31T19:31:48;99841.63;;;20.51;63.71
44825;BME280;30542;47.928;2.138;2022-10-31T19:36:48;99838.94;;;20.51;63.64
44825;BME280;30542;47.928;2.138;2022-10-31T19:41:48;99843.78;;;20.49;63.59
44825;BME280;30542;47.928;2.138;2022-10-31T19:46:49;99842.41;;;20.52;63.25
44825;BME280;30542;47.928;2.138;2022-10-31T19:51:49;99842.16;;;20.53;63.35
44825;BME280;30542;47.928;2.138;2022-10-31T19:56:50;99862.75;;;20.53;63.46
44825;BME280;30542;47.928;2.138;2022-10-31T20:01:50;99849.13;;;20.44;63.34
44825;BME280;30542;47.928;2.138;2022-10-31T20:06:51;99859.53;;;20.51;63.30
44825;BME280;30542;47.928;2.138;2022-10-31T20:11:51;99852.59;;;20.50;63.32
44825;BME280;30542;47.928;2.138;2022-10-31T20:16:53;99866.25;;;20.48;63.72
44825;BME280;30542;47.928;2.138;2022-10-31T20:21:53;99864.38;;;20.44;63.01
44825;BME280;30542;47.928;2.138;2022-10-31T20:26:54;99878.56;;;20.49;62.84
44825;BME280;30542;47.928;2.138;2022-10-31T20:31:54;99878.78;;;20.48;63.14
44825;BME280;30542;47.928;2.138;2022-10-31T20:36:56;99874.53;;;20.47;63.01
44825;BME280;30542;47.928;2.138;2022-10-31T20:41:56;99884.44;;;20.46;62.98
44825;BME280;30542;47.928;2.138;2022-10-31T20:46:57;99883.13;;;20.49;62.91
44825;BME280;30542;47.928;2.138;2022-10-31T20:51:58;99886.56;;;20.44;62.84
44825;BME280;30542;47.928;2.138;2022-10-31T20:56:58;99885.78;;;20.44;62.74
44825;BME280;30542;47.928;2.138;2022-10-31T21:01:59;99881.22;;;20.44;62.84
44825;BME280;30542;47.928;2.138;2022-10-31T21:06:59;99872.97;;;20.41;63.11
44825;BME280;30542;47.928;2.138;2022-10-31T21:12:00;99871.63;;;20.38;62.74
44825;BME280;30542;47.928;2.138;2022-10-31T21:17:00;99886.31;;;20.46;62.82
44825;BME280;30542;47.928;2.138;2022-10-31T21:22:02;99901.81;;;20.44;62.61
44825;BME280;30542;47.928;2.138;2022-10-31T21:27:03;99881.03;;;20.30;62.76
44825;BME280;30542;47.928;2.138;2022-10-31T21:32:03;99908.53;;;20.41;62.74
44825;BME280;30542;47.928;2.138;2022-10-31T21:37:04;99928.84;;;20.42;62.56
44825;BME280;30542;47.928;2.138;2022-10-31T21:42:05;99917.69;;;20.30;62.58
44825;BME280;30542;47.928;2.138;2022-10-31T21:47:05;99922.75;;;20.36;62.52
44825;BME280;30542;47.928;2.138;2022-10-31T21:52:09;99935.84;;;20.38;62.45
44825;BME280;30542;47.928;2.138;2022-10-31T21:57:10;99933.16;;;20.38;62.46
44825;BME280;30542;47.928;2.138;2022-10-31T22:02:10;99944.38;;;20.40;62.36
44825;BME280;30542;47.928;2.138;2022-10-31T22:07:11;99954.56;;;20.38;62.42
44825;BME280;30542;47.928;2.138;2022-10-31T22:12:15;99939.13;;;20.25;62.54
44825;BME280;30542;47.928;2.138;2022-10-31T22:17:15;99950.84;;;20.34;62.34
44825;BME280;30542;47.928;2.138;2022-10-31T22:22:15;99970.59;;;20.38;62.45
44825;BME280;30542;47.928;2.138;2022-10-31T22:27:16;99955.94;;;20.30;62.40
44825;BME280;30542;47.928;2.138;2022-10-31T22:32:18;99969.84;;;20.32;62.43
44825;BME280;30542;47.928;2.138;2022-10-31T22:37:18;99993.09;;;20.37;62.47
44825;BME280;30542;47.928;2.138;2022-10-31T22:42:19;99973.31;;;20.28;62.23
44825;BME280;30542;47.928;2.138;2022-10-31T22:47:19;99975.41;;;20.36;62.28
44825;BME280;30542;47.928;2.138;2022-10-31T22:52:19;99981.06;;;20.34;62.28
44825;BME280;30542;47.928;2.138;2022-10-31T22:57:21;99995.75;;;20.32;62.51
44825;BME280;30542;47.928;2.138;2022-10-31T23:02:22;99995.75;;;20.37;62.04
44825;BME280;30542;47.928;2.138;2022-10-31T23:07:22;100002.16;;;20.36;62.39
44825;BME280;30542;47.928;2.138;2022-10-31T23:12:22;100015.03;;;20.34;62.46
44825;BME280;30542;47.928;2.138;2022-10-31T23:17:41;100027.84;;;20.32;62.33
44825;BME280;30542;47.928;2.138;2022-10-31T23:22:41;100028.94;;;20.31;62.38
44825;BME280;30542;47.928;2.138;2022-10-31T23:27:42;100036.72;;;20.32;62.30
44825;BME280;30542;47.928;2.138;2022-10-31T23:32:42;100047.13;;;20.34;62.41
44825;BME280;30542;47.928;2.138;2022-10-31T23:37:42;100044.44;;;20.34;62.34
44825;BME280;30542;47.928;2.138;2022-10-31T23:42:43;100060.22;;;20.30;62.38
44825;BME280;30542;47.928;2.138;2022-10-31T23:47:44;100058.34;;;20.31;62.68
44825;BME280;30542;47.928;2.138;2022-10-31T23:52:44;100075.47;;;20.30;62.83
44825;BME280;30542;47.928;2.138;2022-10-31T23:57:45;100130.84;;;20.29;62.91
